CMA-CGM Fort Saint Pierre — FQFM — position and weather

sailwx.info

Track history (hours):
 
Tides and Currents Weather Stations Pressure Air Temp Water Temp Dewpoint Dewpoint Depression Visibility Wind Speed Wind Dir Waves Ship Positions

CMA-CGM Fort Saint Pierre

Last reported at 2016-May-06 14:33 UTC. Time now 2016-May-06 14:53 UTC.
Position N 53°28' E 004°57'.

Length 197 m; beam 30 m.

Type: Ship (hazmat cat A). MMSI: 226328000.

Date/timePositionNaut miles runAvg speedWind from/ knotsBaromVisibWave heightAir tempDewpointWater temp
2016-May-06 14:33N 53°28' E 004°57'1413.6
2016-May-06 13:33N 53°20' E 004°39'1414.4
2016-May-06 12:33N 53°07' E 004°27'1414.5
2016-May-06 11:34N 52°54' E 004°17'1514.5
2016-May-06 10:33N 52°42' E 004°03'2814.2
2016-May-06 08:33N 52°14' E 003°53'1211.9
2016-May-06 07:33N 52°02' E 003°54'1414.0
2016-May-06 06:33N 51°56' E 004°14'8 8.1
2016-May-06 05:33N 51°54' E 004°26'0 0.2
2016-May-06 04:32N 51°54' E 004°26'0 0.0
2016-May-06 03:32N 51°54' E 004°26'0 0.0
2016-May-06 02:32N 51°54' E 004°26'0 0.0
2016-May-06 01:32N 51°54' E 004°26'0 0.0
2016-May-06 00:32N 51°54' E 004°26'0 0.0
2016-May-05 23:32N 51°54' E 004°26'0 0.0
2016-May-05 22:32N 51°54' E 004°26'0 0.0
2016-May-05 21:32N 51°54' E 004°26'0 0.0
2016-May-05 20:32N 51°54' E 004°26'0 0.0
2016-May-05 19:32N 51°54' E 004°26'0 0.0
2016-May-05 18:32N 51°54' E 004°26'0 0.0
2016-May-05 17:32N 51°54' E 004°26'0 0.0
2016-May-05 15:32N 51°54' E 004°26'0 0.0
2016-May-05 14:32N 51°54' E 004°26'0 0.0
2016-May-05 13:32N 51°54' E 004°26'0 0.0
2016-May-05 12:32N 51°54' E 004°26'0 0.0
2016-May-05 11:32N 51°54' E 004°26'0 0.0
2016-May-05 10:32N 51°54' E 004°26'0 0.0
2016-May-05 09:32N 51°54' E 004°26'0 0.0
2016-May-05 08:32N 51°54' E 004°26'0 0.0
2016-May-05 07:32N 51°54' E 004°26'0 0.0
2016-May-05 06:32N 51°54' E 004°26'0 0.0
2016-May-05 05:29N 51°54' E 004°26'0 0.0
2016-May-05 04:32N 51°54' E 004°26'0 0.2
2016-May-05 03:33N 51°54' E 004°26'6 6.3
2016-May-05 02:33N 51°54' E 004°16'1110.8
2016-May-05 01:33N 51°60' E 004°01'1212.2
2016-May-05 00:33N 51°59' E 003°41'1111.1
2016-May-04 23:33N 51°55' E 003°24'1212.0
2016-May-04 22:33N 51°52' E 003°05'1312.4
2016-May-04 21:28N 51°47' E 002°45'1112.5
2016-May-04 20:33N 51°40' E 002°31'1514.6
2016-May-04 19:34N 51°29' E 002°15'1615.9
2016-May-04 18:34N 51°18' E 001°57'1515.1
2016-May-04 17:34N 51°07' E 001°41'1514.6
2016-May-04 16:33N 50°55' E 001°26'1312.9
2016-May-04 15:34N 50°43' E 001°22'1413.5
2016-May-04 14:33N 50°33' E 001°07'1413.6
2016-May-04 13:31N 50°27' E 000°48'1414.0
2016-May-04 12:33N 50°23' E 000°27'1414.0
2016-May-04 11:33N 50°21' E 000°05'1414.2
2016-May-04 10:34N 50°18' W 000°16'1414.3
2016-May-04 09:33N 50°14' W 000°38'1816.0
2016-May-04 08:25N 50°10' W 001°05'1517.5
2016-May-04 07:33N 50°05' W 001°28'1818.4
2016-May-04 06:33N 49°60' W 001°55'2018.9
2016-May-04 05:31N 49°55' W 002°25'2018.2
2016-May-04 04:25N 49°49' W 002°55'1517.7
2016-May-04 03:34N 49°44' W 003°17'2117.4
2016-May-04 02:22N 49°37' W 003°47'3216.8
2016-May-04 00:29N 49°30' W 004°34'1916.3
2016-May-03 23:19N 49°24' W 005°02'1216.0
2016-May-03 22:33N 49°20' W 005°20'1615.5
2016-May-03 21:32N 49°16' W 005°43'1515.2
2016-May-03 20:33N 49°13' W 006°06'  
Track history (hours):
 
Tides and Currents Weather Stations Pressure Air Temp Water Temp Dewpoint Dewpoint Depression Visibility Wind Speed Wind Dir Waves Ship Positions

CMA-CGM Fort Saint Pierre

Last reported at 2016-May-06 14:33 UTC. Time now 2016-May-06 14:53 UTC.
Position N 53°28' E 004°57'.

Length 197 m; beam 30 m.

Type: Ship (hazmat cat A). MMSI: 226328000.

Date/timePositionNaut miles runAvg speedWind from/ knotsBaromVisibWave heightAir tempDewpointWater temp
2016-May-06 14:33N 53°28' E 004°57'1413.6
2016-May-06 13:33N 53°20' E 004°39'1414.4
2016-May-06 12:33N 53°07' E 004°27'1414.5
2016-May-06 11:34N 52°54' E 004°17'1514.5
2016-May-06 10:33N 52°42' E 004°03'2814.2
2016-May-06 08:33N 52°14' E 003°53'1211.9
2016-May-06 07:33N 52°02' E 003°54'1414.0
2016-May-06 06:33N 51°56' E 004°14'8 8.1
2016-May-06 05:33N 51°54' E 004°26'0 0.2
2016-May-06 04:32N 51°54' E 004°26'0 0.0
2016-May-06 03:32N 51°54' E 004°26'0 0.0
2016-May-06 02:32N 51°54' E 004°26'0 0.0
2016-May-06 01:32N 51°54' E 004°26'0 0.0
2016-May-06 00:32N 51°54' E 004°26'0 0.0
2016-May-05 23:32N 51°54' E 004°26'0 0.0
2016-May-05 22:32N 51°54' E 004°26'0 0.0
2016-May-05 21:32N 51°54' E 004°26'0 0.0
2016-May-05 20:32N 51°54' E 004°26'0 0.0
2016-May-05 19:32N 51°54' E 004°26'0 0.0
2016-May-05 18:32N 51°54' E 004°26'0 0.0
2016-May-05 17:32N 51°54' E 004°26'0 0.0
2016-May-05 15:32N 51°54' E 004°26'0 0.0
2016-May-05 14:32N 51°54' E 004°26'0 0.0
2016-May-05 13:32N 51°54' E 004°26'0 0.0
2016-May-05 12:32N 51°54' E 004°26'0 0.0
2016-May-05 11:32N 51°54' E 004°26'0 0.0
2016-May-05 10:32N 51°54' E 004°26'0 0.0
2016-May-05 09:32N 51°54' E 004°26'0 0.0
2016-May-05 08:32N 51°54' E 004°26'0 0.0
2016-May-05 07:32N 51°54' E 004°26'0 0.0
2016-May-05 06:32N 51°54' E 004°26'0 0.0
2016-May-05 05:29N 51°54' E 004°26'0 0.0
2016-May-05 04:32N 51°54' E 004°26'0 0.2
2016-May-05 03:33N 51°54' E 004°26'6 6.3
2016-May-05 02:33N 51°54' E 004°16'1110.8
2016-May-05 01:33N 51°60' E 004°01'1212.2
2016-May-05 00:33N 51°59' E 003°41'1111.1
2016-May-04 23:33N 51°55' E 003°24'1212.0
2016-May-04 22:33N 51°52' E 003°05'1312.4
2016-May-04 21:28N 51°47' E 002°45'1112.5
2016-May-04 20:33N 51°40' E 002°31'1514.6
2016-May-04 19:34N 51°29' E 002°15'1615.9
2016-May-04 18:34N 51°18' E 001°57'1515.1
2016-May-04 17:34N 51°07' E 001°41'1514.6
2016-May-04 16:33N 50°55' E 001°26'1312.9
2016-May-04 15:34N 50°43' E 001°22'1413.5
2016-May-04 14:33N 50°33' E 001°07'1413.6
2016-May-04 13:31N 50°27' E 000°48'1414.0
2016-May-04 12:33N 50°23' E 000°27'1414.0
2016-May-04 11:33N 50°21' E 000°05'1414.2
2016-May-04 10:34N 50°18' W 000°16'1414.3
2016-May-04 09:33N 50°14' W 000°38'1816.0
2016-May-04 08:25N 50°10' W 001°05'1517.5
2016-May-04 07:33N 50°05' W 001°28'1818.4
2016-May-04 06:33N 49°60' W 001°55'2018.9
2016-May-04 05:31N 49°55' W 002°25'2018.2
2016-May-04 04:25N 49°49' W 002°55'1517.7
2016-May-04 03:34N 49°44' W 003°17'2117.4
2016-May-04 02:22N 49°37' W 003°47'3216.8
2016-May-04 00:29N 49°30' W 004°34'1916.3
2016-May-03 23:19N 49°24' W 005°02'1216.0
2016-May-03 22:33N 49°20' W 005°20'1615.5
2016-May-03 21:32N 49°16' W 005°43'1515.2
2016-May-03 20:33N 49°13' W 006°06'  

Dump ship's entire track history